Time;durP1;ratioP1;P1;durP2;ratioP2;P2;SDS_P1;SDS_P2;PMS_P1;PMS_P2;Temp;Humidity;BMP_temperature;BMP_pressure;BME280_temperature;BME280_humidity;BME280_pressure;Samples;Min_cycle;Max_cycle;Signal;HPM_P1;HPM_P2
2023/06/02 00:04:54;;;;;;;9.10;4.40;;;;;;;10.99;78.64;100358.81;213856;1290;139320;-91
2023/06/02 00:09:58;;;;;;;15.10;5.20;;;;;;;10.88;79.10;100361.96;214026;1290;141491;-90
2023/06/02 00:14:59;;;;;;;8.70;3.80;;;;;;;10.79;79.43;100363.67;214792;1292;138890;-91
2023/06/02 00:20:00;;;;;;;10.50;4.10;;;;;;;10.71;79.22;100366.75;214597;1288;140946;-91
2023/06/02 00:25:01;;;;;;;11.90;4.40;;;;;;;10.63;79.86;100370.68;215009;1290;138914;-91
2023/06/02 00:30:01;;;;;;;10.70;5.00;;;;;;;10.55;79.71;100371.47;214260;1289;140915;-91
2023/06/02 00:35:02;;;;;;;11.50;4.30;;;;;;;10.48;80.27;100376.04;215118;1290;138971;-91
2023/06/02 00:40:03;;;;;;;11.90;5.80;;;;;;;10.42;80.96;100374.95;214236;1291;142088;-90
2023/06/02 00:45:05;;;;;;;9.30;4.00;;;;;;;10.33;81.84;100383.02;214975;1292;139074;-92
2023/06/02 00:50:07;;;;;;;14.60;4.80;;;;;;;10.27;81.70;100376.90;217326;1289;140478;-91
2023/06/02 00:55:08;;;;;;;10.30;4.30;;;;;;;10.23;82.44;100381.34;217898;1289;139389;-90
2023/06/02 01:00:09;;;;;;;10.10;4.50;;;;;;;10.19;82.90;100381.21;214008;1290;140732;-89
2023/06/02 01:05:12;;;;;;;12.60;5.20;;;;;;;10.13;82.74;100379.50;213830;1289;140592;-89
2023/06/02 01:10:15;;;;;;;16.20;5.30;;;;;;;10.07;82.98;100373.84;213114;1292;140460;-90
2023/06/02 01:15:16;;;;;;;9.60;3.90;;;;;;;9.99;83.69;100380.55;213806;1290;139216;-91
2023/06/02 01:20:21;;;;;;;13.60;4.60;;;;;;;9.90;83.15;100383.96;213104;1290;140583;-92
2023/06/02 01:25:27;;;;;;;10.40;5.10;;;;;;;9.84;83.87;100381.29;213970;1292;138457;-91
2023/06/02 01:30:27;;;;;;;9.40;5.20;;;;;;;9.79;84.90;100379.88;213658;1290;141278;-91
2023/06/02 01:35:34;;;;;;;12.50;5.10;;;;;;;9.72;84.37;100381.05;213845;1290;138600;-91
2023/06/02 01:40:36;;;;;;;11.60;5.60;;;;;;;9.64;84.30;100379.52;213117;1292;140194;-91
2023/06/02 01:45:37;;;;;;;10.40;4.60;;;;;;;9.58;84.74;100376.69;213671;1292;138905;-90
2023/06/02 01:50:38;;;;;;;11.10;4.70;;;;;;;9.51;84.39;100380.99;213284;1290;141001;-92
2023/06/02 01:55:39;;;;;;;11.60;5.10;;;;;;;9.44;84.29;100389.98;214692;1289;97981;-92
2023/06/02 02:00:39;;;;;;;11.00;5.20;;;;;;;9.36;84.27;100388.61;214491;1291;140793;-91
2023/06/02 02:05:40;;;;;;;10.70;4.60;;;;;;;9.31;84.36;100389.09;215109;1290;138520;-92
2023/06/02 02:10:40;;;;;;;9.40;4.70;;;;;;;9.27;84.88;100397.49;214343;1289;141092;-91
2023/06/02 02:15:40;;;;;;;12.00;5.50;;;;;;;9.26;85.63;100401.40;214859;1290;139528;-90
2023/06/02 02:20:41;;;;;;;14.00;6.50;;;;;;;9.28;86.41;100404.89;214550;1290;139343;-91
2023/06/02 02:25:41;;;;;;;16.30;6.60;;;;;;;9.33;87.80;100409.43;214857;1290;97834;-91
2023/06/02 02:30:42;;;;;;;18.50;6.80;;;;;;;9.41;90.27;100413.48;214521;1290;140341;-91
2023/06/02 02:35:43;;;;;;;15.50;8.00;;;;;;;9.52;91.05;100410.36;217772;1289;138596;-91
2023/06/02 02:40:43;;;;;;;18.00;7.80;;;;;;;9.63;91.60;100415.64;217304;1289;139924;-90
2023/06/02 02:45:44;;;;;;;16.90;7.70;;;;;;;9.76;91.29;100420.76;214315;1290;139209;-90
2023/06/02 02:50:44;;;;;;;17.20;8.00;;;;;;;9.88;91.19;100421.23;213239;1293;141999;-90
2023/06/02 02:55:45;;;;;;;15.30;7.60;;;;;;;10.01;91.50;100422.21;214131;1288;98015;-91
2023/06/02 03:00:46;;;;;;;19.40;7.80;;;;;;;10.12;91.37;100425.44;213440;1288;143790;-91
2023/06/02 03:05:47;;;;;;;16.10;8.30;;;;;;;10.24;91.79;100427.81;213863;1290;140457;-91
2023/06/02 03:10:48;;;;;;;15.50;7.40;;;;;;;10.36;91.88;100427.71;213335;1290;142288;-91
2023/06/02 03:15:49;;;;;;;17.90;7.80;;;;;;;10.47;91.67;100431.30;213606;1290;138823;-91
2023/06/02 03:20:49;;;;;;;21.00;8.00;;;;;;;10.59;92.18;100430.48;213203;1290;141171;-91
2023/06/02 03:25:51;;;;;;;16.10;7.50;;;;;;;10.72;92.00;100435.73;213881;1290;97981;-91
2023/06/02 03:30:51;;;;;;;16.60;7.70;;;;;;;10.83;91.73;100437.02;213106;1290;141332;-91
2023/06/02 03:35:52;;;;;;;20.40;8.00;;;;;;;10.94;91.58;100436.43;213908;1290;138799;-91
2023/06/02 03:40:52;;;;;;;17.30;6.80;;;;;;;11.04;91.29;100437.08;214050;1290;140749;-91
2023/06/02 03:45:53;;;;;;;15.70;8.00;;;;;;;11.15;91.29;100441.90;214743;1291;138867;-91
2023/06/02 03:50:53;;;;;;;15.30;6.80;;;;;;;11.26;91.80;100444.67;214393;1288;140765;-92
2023/06/02 03:55:53;;;;;;;17.70;6.90;;;;;;;11.36;91.87;100442.23;215075;1291;105316;-92
2023/06/02 04:00:55;;;;;;;17.30;7.60;;;;;;;11.46;91.32;100450.19;214335;1293;139832;-91
2023/06/02 04:05:55;;;;;;;15.00;6.10;;;;;;;11.55;91.56;100453.73;215367;1289;139841;-91
2023/06/02 04:10:56;;;;;;;13.50;6.60;;;;;;;11.66;91.13;100451.02;214444;1291;140786;-91
2023/06/02 04:15:56;;;;;;;17.70;6.30;;;;;;;11.79;91.30;100446.20;215217;1290;139011;-91
2023/06/02 04:20:57;;;;;;;17.40;7.90;;;;;;;11.91;90.73;100447.77;217401;1288;141616;-91
2023/06/02 04:25:58;;;;;;;14.20;6.80;;;;;;;12.06;90.51;100456.77;218157;1288;96762;-92
2023/06/02 04:30:59;;;;;;;13.30;6.40;;;;;;;12.19;90.30;100462.91;213903;1290;140903;-91
2023/06/02 04:36:00;;;;;;;16.50;6.80;;;;;;;12.32;90.12;100467.39;214156;1290;138806;-91
2023/06/02 04:41:01;;;;;;;14.90;6.90;;;;;;;12.44;89.75;100466.17;213667;1293;141228;-92
2023/06/02 04:46:02;;;;;;;15.60;7.10;;;;;;;12.53;89.64;100468.58;214137;1290;139109;-91
2023/06/02 04:51:02;;;;;;;19.50;6.70;;;;;;;12.63;89.22;100474.69;213466;1293;140822;-92
2023/06/02 04:56:03;;;;;;;13.60;6.70;;;;;;;12.71;88.82;100476.93;214162;1290;99302;-91
2023/06/02 05:01:03;;;;;;;16.00;7.00;;;;;;;12.79;88.66;100480.25;213283;1288;140333;-92
2023/06/02 05:06:04;;;;;;;13.70;6.40;;;;;;;12.88;88.84;100478.46;213901;1290;138864;-91
2023/06/02 05:11:07;;;;;;;17.10;7.60;;;;;;;12.95;88.60;100484.49;213388;1290;141200;-91
2023/06/02 05:16:08;;;;;;;11.20;6.60;;;;;;;13.02;88.52;100487.45;214092;1290;139417;-91
2023/06/02 05:21:09;;;;;;;13.00;6.60;;;;;;;13.11;87.95;100496.55;213777;1290;141858;-91
2023/06/02 05:26:09;;;;;;;18.70;7.00;;;;;;;13.18;87.88;100496.80;215068;1293;96780;-88
2023/06/02 05:31:10;;;;;;;12.70;6.90;;;;;;;13.21;87.73;100502.95;214815;1293;141624;-91
2023/06/02 05:36:11;;;;;;;16.60;6.70;;;;;;;13.25;87.74;100511.19;215150;1290;138828;-91
2023/06/02 05:41:11;;;;;;;15.90;6.50;;;;;;;13.26;88.17;100510.70;214516;1291;140834;-91
2023/06/02 05:46:12;;;;;;;13.30;6.40;;;;;;;13.26;88.14;100522.40;215365;1293;138898;-93
2023/06/02 05:51:12;;;;;;;10.90;5.30;;;;;;;13.27;88.51;100526.18;214779;1290;142129;-93
2023/06/02 05:56:13;;;;;;;10.00;4.70;;;;;;;13.26;89.12;100531.55;215374;1290;97131;-91
2023/06/02 06:01:13;;;;;;;7.80;4.00;;;;;;;13.21;89.23;100529.73;214756;1293;142370;-92
2023/06/02 06:06:14;;;;;;;7.60;3.30;;;;;;;13.23;89.61;100535.66;217514;1291;138508;-91
2023/06/02 06:11:14;;;;;;;7.30;2.90;;;;;;;13.23;89.87;100542.21;217213;1288;141449;-93
2023/06/02 06:16:15;;;;;;;8.20;3.30;;;;;;;13.23;89.81;100549.63;214486;1288;139786;-90
2023/06/02 06:21:15;;;;;;;5.50;2.90;;;;;;;13.26;90.00;100552.33;213713;1293;142236;-92
2023/06/02 06:26:16;;;;;;;7.30;3.90;;;;;;;13.27;90.66;100552.73;214359;1292;98108;-91
2023/06/02 06:31:16;;;;;;;8.50;3.30;;;;;;;13.32;90.83;100561.57;213675;1290;140491;-90
2023/06/02 06:36:17;;;;;;;8.00;2.70;;;;;;;13.40;90.27;100565.55;214399;1293;138499;-90
2023/06/02 06:41:18;;;;;;;6.10;2.90;;;;;;;13.49;89.56;100577.41;213960;1291;142506;-90
2023/06/02 06:46:19;;;;;;;6.80;3.00;;;;;;;13.63;89.28;100578.70;214422;1293;138660;-91
2023/06/02 06:51:20;;;;;;;7.10;2.70;;;;;;;13.74;89.48;100580.75;214091;1290;140638;-92
2023/06/02 06:56:21;;;;;;;7.20;2.50;;;;;;;13.95;88.96;100588.50;215005;1291;97899;-92
2023/06/02 07:01:21;;;;;;;6.90;3.20;;;;;;;14.12;88.50;100594.98;214146;1293;139945;-93
2023/06/02 07:06:22;;;;;;;7.10;2.60;;;;;;;14.26;87.35;100601.09;214262;1291;138542;-93
2023/06/02 07:11:22;;;;;;;9.80;2.50;;;;;;;14.45;86.72;100607.88;216026;1288;230348;-84
2023/06/02 07:16:22;;;;;;;6.70;2.60;;;;;;;14.61;85.73;100615.04;216775;1287;138702;-85
2023/06/02 07:21:23;;;;;;;4.80;1.80;;;;;;;14.73;84.66;100625.93;216232;1292;139890;-85
2023/06/02 07:26:23;;;;;;;6.40;2.50;;;;;;;14.86;83.70;100631.52;216749;1290;97869;-83
2023/06/02 07:31:23;;;;;;;9.20;2.40;;;;;;;14.98;83.00;100637.73;216252;1290;140523;-87
2023/06/02 07:36:24;;;;;;;8.80;2.60;;;;;;;15.13;82.10;100638.38;216655;1288;140216;-88
2023/06/02 07:41:25;;;;;;;5.60;1.90;;;;;;;15.20;79.34;100638.27;216118;1288;141126;-85
2023/06/02 07:46:25;;;;;;;8.30;2.10;;;;;;;15.31;77.72;100645.68;216777;1291;138900;-89
2023/06/02 07:51:26;;;;;;;7.40;2.30;;;;;;;15.57;77.17;100650.88;216204;1289;142549;-84
2023/06/02 07:56:26;;;;;;;5.50;1.70;;;;;;;15.95;76.08;100648.41;216822;1291;98306;-85
2023/06/02 08:01:26;;;;;;;5.30;1.90;;;;;;;16.22;73.84;100653.11;216284;1291;141221;-82
2023/06/02 08:06:27;;;;;;;10.80;1.90;;;;;;;16.55;72.29;100657.21;216716;1290;138555;-85
2023/06/02 08:11:27;;;;;;;6.90;2.20;;;;;;;16.89;71.02;100658.14;216029;1291;140981;-87
2023/06/02 08:16:28;;;;;;;7.10;1.60;;;;;;;17.25;69.64;100660.73;216480;1291;138991;-84
2023/06/02 08:21:28;;;;;;;8.00;1.70;;;;;;;17.65;68.52;100664.44;216112;1289;141267;-83
2023/06/02 08:26:29;;;;;;;6.20;1.90;;;;;;;17.99;66.80;100666.57;216834;1291;97930;-85
2023/06/02 08:31:29;;;;;;;5.60;1.60;;;;;;;18.51;65.65;100673.40;216180;1289;138625;-87
2023/06/02 08:36:30;;;;;;;6.50;2.30;;;;;;;19.20;63.76;100673.59;216506;1292;138229;-86
2023/06/02 08:41:30;;;;;;;9.10;1.60;;;;;;;20.02;61.36;100678.14;216263;1292;139881;-84
2023/06/02 08:46:31;;;;;;;7.30;1.60;;;;;;;20.72;58.70;100688.94;216330;1291;138200;-88
2023/06/02 08:51:37;;;;;;;10.00;2.00;;;;;;;21.45;57.42;100688.87;216200;1291;138995;-84
2023/06/02 08:56:40;;;;;;;8.30;2.10;;;;;;;22.17;55.40;100693.71;216669;1291;139421;-89
2023/06/02 09:01:43;;;;;;;7.00;2.10;;;;;;;22.68;52.78;100692.61;216200;1291;139499;-85
2023/06/02 09:06:43;;;;;;;4.90;1.40;;;;;;;23.05;52.40;100692.27;216651;1291;137979;-86
2023/06/02 09:12:01;;;;;;;7.00;1.90;;;;;;;23.97;50.83;100694.90;216153;1289;139890;-83
2023/06/02 09:17:01;;;;;;;5.10;1.60;;;;;;;24.68;47.67;100695.30;216676;1291;138001;-86
2023/06/02 09:22:05;;;;;;;7.20;1.80;;;;;;;25.43;46.30;100702.42;216083;1291;140903;-85
2023/06/02 09:27:15;;;;;;;5.00;1.70;;;;;;;26.19;45.11;100708.48;216537;1290;138732;-88
2023/06/02 09:32:17;;;;;;;7.20;2.00;;;;;;;27.25;42.12;100703.37;216006;1291;140544;-86
2023/06/02 09:37:19;;;;;;;5.90;1.50;;;;;;;27.46;40.25;100708.23;216753;1290;138107;-87
2023/06/02 09:42:21;;;;;;;4.40;1.40;;;;;;;27.87;39.94;100710.56;216305;1291;138788;-88
2023/06/02 09:47:24;;;;;;;5.10;1.90;;;;;;;28.71;38.48;100718.35;216619;1288;138137;-91
2023/06/02 09:52:24;;;;;;;4.60;1.50;;;;;;;29.39;37.05;100724.13;215942;1292;139819;-82
2023/06/02 09:57:25;;;;;;;6.20;1.60;;;;;;;29.56;35.66;100731.04;216809;1292;138039;-90
2023/06/02 10:02:26;;;;;;;4.80;1.50;;;;;;;30.04;36.32;100732.33;216171;1292;140400;-86
2023/06/02 10:07:55;;;;;;;6.40;1.60;;;;;;;30.81;34.36;100740.62;216644;1288;137951;-91
2023/06/02 10:13:16;;;;;;;4.90;1.50;;;;;;;31.22;32.70;100742.13;216198;1289;139330;-86
2023/06/02 10:18:23;;;;;;;6.30;1.90;;;;;;;30.86;30.51;100746.27;216690;1290;138170;-87
2023/06/02 10:23:55;;;;;;;3.40;1.50;;;;;;;30.75;31.84;100742.73;216189;1289;140378;-88
2023/06/02 10:28:59;;;;;;;6.00;1.70;;;;;;;31.02;30.14;100743.33;216159;1289;139843;-83
2023/06/02 10:34:00;;;;;;;6.10;1.60;;;;;;;31.34;29.28;100742.59;216665;1291;139322;-88
2023/06/02 10:39:41;;;;;;;3.40;1.40;;;;;;;31.04;29.14;100739.05;215940;1291;333874;-84
2023/06/02 10:44:41;;;;;;;6.30;1.80;;;;;;;30.11;28.60;100741.80;216622;1289;138488;-83
2023/06/02 10:49:54;;;;;;;6.60;1.80;;;;;;;29.86;29.41;100736.91;216357;1291;138964;-84
2023/06/02 10:55:07;;;;;;;6.50;1.60;;;;;;;29.97;29.61;100737.42;216742;1292;139097;-87
2023/06/02 11:00:39;;;;;;;4.40;1.30;;;;;;;30.21;29.21;100747.61;216164;1289;140535;-89
2023/06/02 11:05:39;;;;;;;4.80;1.60;;;;;;;30.98;28.56;100747.79;216663;1292;139015;-87
2023/06/02 11:10:45;;;;;;;11.70;2.00;;;;;;;31.60;27.56;100743.84;216203;1289;140508;-84
2023/06/02 11:15:51;;;;;;;4.50;1.30;;;;;;;31.71;26.85;100750.35;216554;1292;138557;-83
2023/06/02 11:20:54;;;;;;;3.10;1.30;;;;;;;31.95;26.52;100746.48;216176;1292;139576;-84
2023/06/02 11:26:00;;;;;;;4.60;1.50;;;;;;;31.84;25.91;100750.14;216830;1291;97873;-81
2023/06/02 11:31:09;;;;;;;8.50;1.60;;;;;;;31.21;26.21;100753.02;216188;1291;139038;-92
2023/06/02 11:36:12;;;;;;;4.10;1.50;;;;;;;30.68;26.05;100758.88;216726;1290;138125;-90
2023/06/02 11:41:18;;;;;;;6.10;1.80;;;;;;;29.97;25.95;100757.92;216246;1291;140378;-92
2023/06/02 11:46:19;;;;;;;3.90;1.60;;;;;;;29.51;27.03;100756.55;216461;1291;138256;-88
2023/06/02 11:51:20;;;;;;;8.90;1.40;;;;;;;29.85;26.24;100764.63;216021;1291;145054;-91
2023/06/02 11:56:21;;;;;;;3.50;1.60;;;;;;;29.80;26.83;100764.93;216634;1291;97860;-92
2023/06/02 12:01:21;;;;;;;6.40;1.70;;;;;;;30.32;26.48;100773.23;215951;1291;139897;-85
2023/06/02 12:06:22;;;;;;;4.20;1.60;;;;;;;30.30;26.38;100775.73;216763;1289;138024;-90
2023/06/02 12:11:23;;;;;;;5.10;1.50;;;;;;;30.61;25.72;100776.65;216069;1291;140491;-88
2023/06/02 12:16:24;;;;;;;5.10;1.40;;;;;;;30.21;25.68;100786.55;216521;1291;138098;-92
2023/06/02 12:21:29;;;;;;;4.40;1.20;;;;;;;30.14;25.16;100780.80;215992;1291;140297;-86
2023/06/02 12:26:42;;;;;;;2.90;1.40;;;;;;;29.59;25.40;100779.30;216762;1292;106114;-91
2023/06/02 12:31:42;;;;;;;4.70;1.50;;;;;;;29.33;25.18;100780.66;215871;1291;139041;-85
2023/06/02 12:36:43;;;;;;;4.60;1.50;;;;;;;28.09;24.76;100779.03;216792;1290;139292;-85
2023/06/02 12:41:43;;;;;;;4.70;1.60;;;;;;;27.77;25.66;100780.96;216221;1292;139942;-85
2023/06/02 12:46:44;;;;;;;6.50;1.50;;;;;;;27.92;25.97;100788.50;216667;1291;138110;-84
2023/06/02 12:51:44;;;;;;;6.00;1.10;;;;;;;28.12;25.98;100785.05;216184;1291;139773;-90
2023/06/02 12:56:45;;;;;;;3.00;1.30;;;;;;;27.83;24.75;100784.90;216734;1291;138224;-87
2023/06/02 13:01:45;;;;;;;5.80;1.50;;;;;;;27.41;25.73;100780.95;216240;1291;140946;-85
2023/06/02 13:06:46;;;;;;;4.70;1.40;;;;;;;27.30;25.23;100791.55;216746;1289;138576;-86
2023/06/02 13:11:48;;;;;;;4.10;1.10;;;;;;;26.59;26.34;100792.71;216191;1290;139298;-90
2023/06/02 13:16:48;;;;;;;2.10;0.90;;;;;;;26.96;26.51;100795.89;216484;1291;138611;-89
2023/06/02 13:21:50;;;;;;;3.50;1.00;;;;;;;27.26;26.33;100792.88;216260;1289;140179;-85
2023/06/02 13:26:51;;;;;;;2.70;1.20;;;;;;;27.32;26.49;100793.38;216670;1289;138446;-86
2023/06/02 13:31:52;;;;;;;2.90;0.80;;;;;;;27.50;25.88;100790.24;216136;1291;140226;-85
2023/06/02 13:36:53;;;;;;;3.20;1.00;;;;;;;27.35;25.54;100796.56;216621;1292;137867;-88
2023/06/02 13:41:53;;;;;;;4.30;1.10;;;;;;;27.43;26.05;100792.09;216138;1292;139441;-91
2023/06/02 13:46:54;;;;;;;3.40;0.90;;;;;;;27.32;25.50;100799.61;216528;1289;138681;-88
2023/06/02 13:51:54;;;;;;;3.50;1.00;;;;;;;26.84;25.23;100817.70;216239;1291;139788;-85
2023/06/02 13:56:55;;;;;;;4.80;1.10;;;;;;;26.81;26.01;100814.36;216719;1289;138193;-87
2023/06/02 14:01:57;;;;;;;1.70;0.60;;;;;;;26.42;24.81;100821.83;216122;1291;139986;-93
2023/06/02 14:06:57;;;;;;;3.90;0.80;;;;;;;25.94;24.82;100821.20;216517;1291;137963;-89
2023/06/02 14:11:57;;;;;;;6.40;1.10;;;;;;;26.09;26.49;100821.57;216018;1291;140353;-86
2023/06/02 14:16:58;;;;;;;6.10;1.50;;;;;;;26.19;25.56;100831.08;216625;1291;138060;-87
2023/06/02 14:21:58;;;;;;;4.40;0.90;;;;;;;26.10;26.61;100826.41;216226;1289;140932;-85
2023/06/02 14:26:58;;;;;;;3.40;1.00;;;;;;;26.24;27.04;100826.11;216671;1290;137990;-85
2023/06/02 14:31:59;;;;;;;2.30;0.90;;;;;;;25.80;23.50;100828.75;216094;1289;139956;-92
2023/06/02 14:36:59;;;;;;;2.40;0.70;;;;;;;25.00;23.25;100828.84;216484;1292;138088;-87
2023/06/02 14:42:00;;;;;;;3.70;1.00;;;;;;;24.27;23.53;100829.29;216163;1289;140826;-85
2023/06/02 14:47:01;;;;;;;8.50;3.50;;;;;;;23.50;23.19;100831.80;216742;1291;138024;-84
2023/06/02 14:52:01;;;;;;;1.10;0.60;;;;;;;23.18;23.91;100826.92;216117;1292;140994;-88
2023/06/02 14:57:05;;;;;;;4.70;1.30;;;;;;;22.96;24.77;100828.71;216744;1290;138004;-88
2023/06/02 15:02:06;;;;;;;3.00;0.80;;;;;;;22.88;24.22;100826.55;216244;1292;139363;-84
2023/06/02 15:07:06;;;;;;;5.30;1.10;;;;;;;22.71;25.32;100830.70;216736;1289;137682;-87
2023/06/02 15:12:07;;;;;;;4.40;1.50;;;;;;;22.73;25.52;100832.48;216026;1289;139054;-84
2023/06/02 15:17:07;;;;;;;3.80;1.40;;;;;;;22.65;25.29;100837.71;216685;1292;138847;-85
2023/06/02 15:22:07;;;;;;;5.50;2.70;;;;;;;22.41;25.77;100839.66;216125;1293;140420;-82
2023/06/02 15:27:08;;;;;;;3.40;1.00;;;;;;;22.43;27.32;100837.21;216661;1292;138053;-87
2023/06/02 15:32:08;;;;;;;5.60;1.00;;;;;;;22.58;27.06;100835.92;216247;1292;140127;-84
2023/06/02 15:37:09;;;;;;;7.80;1.10;;;;;;;22.42;26.14;100830.44;216709;1292;137863;-87
2023/06/02 15:42:09;;;;;;;2.30;0.80;;;;;;;21.92;25.49;100836.70;216192;1290;138810;-83
2023/06/02 15:47:09;;;;;;;3.20;0.90;;;;;;;21.42;26.10;100831.63;216568;1289;138088;-87
2023/06/02 15:52:10;;;;;;;3.70;1.00;;;;;;;21.31;26.96;100836.08;216150;1292;140742;-85
2023/06/02 15:57:11;;;;;;;3.30;0.80;;;;;;;21.00;26.77;100841.96;216493;1289;138057;-85
2023/06/02 16:02:11;;;;;;;4.20;0.80;;;;;;;20.70;26.26;100848.94;216175;1290;142089;-84
2023/06/02 16:07:11;;;;;;;2.80;0.60;;;;;;;20.32;25.76;100844.70;216616;1291;138975;-82
2023/06/02 16:12:12;;;;;;;5.70;1.00;;;;;;;20.01;26.35;100851.40;216255;1292;140989;-88
2023/06/02 16:17:12;;;;;;;5.30;0.80;;;;;;;19.85;27.03;100855.55;216587;1292;137984;-89
2023/06/02 16:22:13;;;;;;;4.80;0.80;;;;;;;19.66;27.45;100857.36;216033;1291;141206;-85
2023/06/02 16:27:13;;;;;;;3.20;0.80;;;;;;;19.53;28.12;100863.52;216532;1289;137980;-87
2023/06/02 16:32:13;;;;;;;1.60;0.50;;;;;;;19.40;28.46;100868.77;216249;1292;236427;-90
2023/06/02 16:37:18;;;;;;;3.60;0.60;;;;;;;19.23;28.27;100867.38;216600;1290;137950;-89
2023/06/02 16:42:18;;;;;;;3.00;0.60;;;;;;;19.02;28.27;100870.98;216020;1293;139292;-84
2023/06/02 16:47:20;;;;;;;3.50;0.70;;;;;;;18.76;27.81;100875.38;216687;1289;138194;-86
2023/06/02 16:52:20;;;;;;;1.50;0.80;;;;;;;18.46;27.88;100878.54;216166;1291;140442;-85
2023/06/02 16:57:21;;;;;;;8.10;1.00;;;;;;;18.22;27.91;100880.34;216575;1289;138840;-87
2023/06/02 17:02:22;;;;;;;2.80;0.60;;;;;;;18.00;28.00;100883.48;216097;1289;139625;-90
2023/06/02 17:07:22;;;;;;;1.60;0.60;;;;;;;17.83;27.87;100885.98;216468;1289;137916;-88
2023/06/02 17:12:23;;;;;;;1.90;0.60;;;;;;;17.62;28.06;100892.58;216109;1289;138939;-83
2023/06/02 17:17:23;;;;;;;2.70;0.80;;;;;;;17.47;29.36;100895.98;216556;1292;138049;-82
2023/06/02 17:22:25;;;;;;;4.30;0.70;;;;;;;17.31;29.95;100905.71;216200;1290;139647;-82
2023/06/02 17:27:26;;;;;;;1.80;0.80;;;;;;;17.19;30.74;100915.52;216672;1289;138043;-89
2023/06/02 17:32:26;;;;;;;4.70;0.70;;;;;;;17.09;31.56;100921.16;216045;1289;139788;-87
2023/06/02 17:37:30;;;;;;;3.50;0.70;;;;;;;16.94;31.84;100923.80;216573;1289;138039;-82
2023/06/02 19:49:28;;;;;;;4.00;1.20;;;;;;;13.06;43.78;101079.73;221819;1265;138850;-88
2023/06/02 19:54:29;;;;;;;6.00;1.70;;;;;;;12.86;44.50;101084.61;221946;1268;137300;-89
2023/06/02 19:59:31;;;;;;;4.80;1.20;;;;;;;12.67;45.23;101079.94;221569;1263;139082;-88
2023/06/02 20:04:32;;;;;;;4.70;1.60;;;;;;;12.48;45.90;101084.19;221901;1263;137292;-88
2023/06/02 20:09:34;;;;;;;4.50;1.30;;;;;;;12.30;46.63;101087.79;221472;1263;139004;-87
2023/06/02 20:14:34;;;;;;;4.30;1.50;;;;;;;12.11;47.14;101090.19;222004;1263;137115;-86
2023/06/02 20:19:35;;;;;;;5.30;1.50;;;;;;;11.95;47.42;101096.23;221438;1263;139259;-87
2023/06/02 20:24:35;;;;;;;4.60;1.50;;;;;;;11.78;47.74;101094.15;222049;1266;137315;-86
2023/06/02 20:29:36;;;;;;;3.20;1.20;;;;;;;11.63;48.31;101098.92;221395;1264;138205;-88
2023/06/02 20:34:36;;;;;;;5.80;1.50;;;;;;;11.44;48.94;101106.05;222133;1263;137299;-87
2023/06/02 20:39:37;;;;;;;5.70;2.40;;;;;;;11.28;49.42;101115.02;221971;1266;139195;-89
2023/06/02 20:45:07;;;;;;;6.40;2.60;;;;;;;11.10;50.97;101124.36;222281;1263;137583;-91
2023/06/02 20:50:29;;;;;;;5.30;1.50;;;;;;;10.80;52.00;101131.36;221935;1262;139295;-92
2023/06/02 20:55:31;;;;;;;4.90;1.60;;;;;;;10.55;52.35;101142.38;222400;1263;137135;-92
2023/06/02 21:00:52;;;;;;;4.90;1.60;;;;;;;10.33;52.43;101149.58;221818;1264;138683;-90
2023/06/02 21:11:53;;;;;;;5.30;1.50;;;;;;;10.01;53.12;101160.63;221576;1263;138677;-91
2023/06/02 21:16:54;;;;;;;5.80;1.50;;;;;;;9.89;53.36;101164.39;222388;1263;137440;-90
2023/06/02 21:21:57;;;;;;;4.10;1.40;;;;;;;9.80;53.40;101167.23;221585;1263;139378;-90
2023/06/02 21:26:57;;;;;;;7.90;2.00;;;;;;;9.73;53.67;101169.81;222457;1264;95113;-87
2023/06/02 21:31:57;;;;;;;6.80;1.90;;;;;;;9.66;53.85;101174.33;221860;1266;137959;-85
2023/06/02 21:36:58;;;;;;;6.00;2.00;;;;;;;9.58;54.03;101177.19;222170;1266;137191;-91
2023/06/02 21:42:03;;;;;;;5.90;2.30;;;;;;;9.50;53.92;101182.61;221592;1264;138660;-91
2023/06/02 21:47:07;;;;;;;7.60;2.50;;;;;;;9.44;54.24;101186.29;222403;1266;137318;-88
2023/06/02 21:52:07;;;;;;;7.30;1.90;;;;;;;9.38;54.16;101192.95;221897;1264;138593;-86
2023/06/02 21:57:08;;;;;;;4.60;1.70;;;;;;;9.34;54.66;101197.94;222478;1263;95346;-87
2023/06/02 22:02:09;;;;;;;8.20;1.70;;;;;;;9.29;54.96;101203.61;221944;1266;138324;-88
2023/06/02 22:07:10;;;;;;;6.90;1.60;;;;;;;9.26;55.17;101206.32;222251;1266;135854;-88
2023/06/02 22:12:13;;;;;;;7.40;1.90;;;;;;;9.22;55.24;101215.02;221640;1264;138858;-88
2023/06/02 22:17:13;;;;;;;6.40;1.90;;;;;;;9.16;55.82;101217.66;222093;1264;137120;-87
2023/06/02 22:22:14;;;;;;;5.90;1.80;;;;;;;9.10;56.01;101222.81;221652;1263;138691;-85
2023/06/02 22:27:14;;;;;;;5.20;1.40;;;;;;;9.04;56.56;101223.72;222507;1264;95204;-85
2023/06/02 22:32:15;;;;;;;5.30;1.60;;;;;;;8.97;57.16;101228.55;221840;1267;139527;-87
2023/06/02 22:37:16;;;;;;;7.00;2.30;;;;;;;8.91;57.57;101230.08;222068;1264;137223;-86
2023/06/02 22:42:16;;;;;;;5.60;1.50;;;;;;;8.85;58.35;101229.89;221416;1264;138746;-85
2023/06/02 22:47:16;;;;;;;4.00;1.70;;;;;;;8.76;58.63;101239.13;222025;1264;137113;-85
2023/06/02 22:52:17;;;;;;;7.00;1.70;;;;;;;8.68;59.49;101241.27;221509;1269;137694;-88
2023/06/02 22:57:17;;;;;;;5.90;1.70;;;;;;;8.60;59.71;101241.36;222135;1264;95137;-88
2023/06/02 23:02:18;;;;;;;4.50;1.70;;;;;;;8.53;60.30;101241.36;221353;1264;137590;-88
2023/06/02 23:07:18;;;;;;;11.50;2.20;;;;;;;8.45;60.90;101240.86;221878;1264;136923;-87
2023/06/02 23:12:18;;;;;;;4.70;1.60;;;;;;;8.36;61.15;101248.82;221591;1264;138921;-87
2023/06/02 23:17:22;;;;;;;6.10;1.90;;;;;;;8.29;61.39;101252.00;222091;1268;137906;-89
2023/06/02 23:22:24;;;;;;;4.70;1.70;;;;;;;8.23;61.58;101255.02;221493;1268;139778;-89
2023/06/02 23:27:25;;;;;;;5.30;1.90;;;;;;;8.16;61.87;101260.09;222174;1264;95248;-85
2023/06/02 23:32:27;;;;;;;5.40;1.60;;;;;;;8.08;61.50;101264.35;221717;1264;138100;-87
2023/06/02 23:37:28;;;;;;;3.80;1.40;;;;;;;8.02;61.46;101267.96;222079;1267;137174;-85
2023/06/02 23:42:28;;;;;;;4.80;1.50;;;;;;;7.93;61.75;101268.35;221438;1264;139268;-87
2023/06/02 23:47:29;;;;;;;5.20;1.30;;;;;;;7.87;61.88;101274.70;222135;1264;137139;-85
2023/06/02 23:52:30;;;;;;;3.40;1.00;;;;;;;7.80;61.76;101271.66;221819;1264;138618;-86
2023/06/02 23:57:30;;;;;;;6.00;1.50;;;;;;;7.73;62.08;101276.58;222027;1264;95308;-89
